createdAt,value
2022-08-17T00:01:44.934Z,3.75
2022-08-17T00:04:23.169Z,3.85
2022-08-17T00:06:53.326Z,3.35
2022-08-17T00:09:21.271Z,3.65
2022-08-17T00:12:41.673Z,3.40
2022-08-17T00:14:38.154Z,4.43
2022-08-17T00:17:07.099Z,3.30
2022-08-17T00:19:36.463Z,3.22
2022-08-17T00:22:34.964Z,3.67
2022-08-17T00:24:54.734Z,3.28
2022-08-17T00:27:22.800Z,3.47
2022-08-17T00:29:50.787Z,3.67
2022-08-17T00:33:22.742Z,3.70
2022-08-17T00:35:12.144Z,3.63
2022-08-17T00:37:40.383Z,3.95
2022-08-17T00:40:09.704Z,4.10
2022-08-17T00:42:38.269Z,3.47
2022-08-17T00:45:07.387Z,3.70
2022-08-17T00:47:35.340Z,3.47
2022-08-17T00:50:03.470Z,3.63
2022-08-17T00:52:38.769Z,3.92
2022-08-17T00:55:08.301Z,3.50
2022-08-17T00:57:39.190Z,3.70
2022-08-17T01:00:11.679Z,3.60
2022-08-17T01:02:44.016Z,3.63
2022-08-17T01:05:18.433Z,3.55
2022-08-17T01:07:50.051Z,3.65
2022-08-17T01:11:00.423Z,3.80
2022-08-17T01:13:11.675Z,3.72
2022-08-17T01:15:46.172Z,3.78
2022-08-17T01:18:15.967Z,3.60
2022-08-17T01:20:48.908Z,3.55
2022-08-17T01:23:21.234Z,3.50
2022-08-17T01:25:51.477Z,3.42
2022-08-17T01:28:52.449Z,4.13
2022-08-17T01:31:09.486Z,3.85
2022-08-17T01:33:37.947Z,4.28
2022-08-17T01:36:07.517Z,3.95
2022-08-17T01:38:38.315Z,3.60
2022-08-17T01:41:10.639Z,3.70
2022-08-17T01:43:42.946Z,3.92
2022-08-17T01:46:15.728Z,4.00
2022-08-17T01:48:47.422Z,3.90
2022-08-17T01:51:17.268Z,3.95
2022-08-17T01:53:51.510Z,3.53
2022-08-17T01:56:23.306Z,3.80
2022-08-17T01:58:52.425Z,3.60
2022-08-17T02:01:23.863Z,3.42
2022-08-17T02:03:54.525Z,3.78
2022-08-17T02:06:30.331Z,3.67
2022-08-17T02:09:02.487Z,3.85
2022-08-17T02:11:33.971Z,3.45
2022-08-17T02:14:04.111Z,3.13
2022-08-17T02:16:36.909Z,3.60
2022-08-17T02:19:08.087Z,3.95
2022-08-17T02:21:37.446Z,3.55
2022-08-17T02:24:09.850Z,3.50
2022-08-17T02:26:37.925Z,3.72
2022-08-17T02:29:06.180Z,3.20
2022-08-17T02:31:35.677Z,3.22
2022-08-17T02:34:05.327Z,3.50
2022-08-17T02:36:34.969Z,3.60
2022-08-17T02:39:03.276Z,3.60
2022-08-17T02:41:33.029Z,3.47
2022-08-17T02:44:01.212Z,3.63
2022-08-17T02:46:30.529Z,3.30
2022-08-17T02:48:58.817Z,3.53
2022-08-17T02:51:27.262Z,3.40
2022-08-17T02:54:02.179Z,3.35
2022-08-17T02:56:44.893Z,3.20
2022-08-17T02:59:12.852Z,3.30
2022-08-17T03:01:40.993Z,3.40
2022-08-17T03:04:09.008Z,3.80
2022-08-17T03:06:37.499Z,3.40
2022-08-17T03:09:05.850Z,3.42
2022-08-17T03:11:33.807Z,3.35
2022-08-17T03:14:03.186Z,3.60
2022-08-17T03:16:31.140Z,3.65
2022-08-17T03:18:59.189Z,4.00
2022-08-17T03:21:27.176Z,3.90
2022-08-17T03:23:55.146Z,3.50
2022-08-17T03:26:23.105Z,3.88
2022-08-17T03:28:51.089Z,3.95
2022-08-17T03:31:21.487Z,3.58
2022-08-17T03:33:49.455Z,3.65
2022-08-17T03:36:17.554Z,4.20
2022-08-17T03:38:45.504Z,3.75
2022-08-17T03:41:14.042Z,3.83
2022-08-17T03:43:41.974Z,3.72
2022-08-17T03:46:35.132Z,3.95
2022-08-17T03:49:24.404Z,3.60
2022-08-17T03:52:10.296Z,3.75
2022-08-17T03:54:55.967Z,4.00
2022-08-17T03:57:24.705Z,3.40
2022-08-17T03:59:52.902Z,4.20
2022-08-17T04:02:24.490Z,3.97
2022-08-17T04:04:54.370Z,3.63
2022-08-17T04:07:24.425Z,3.80
2022-08-17T04:09:52.751Z,4.07
2022-08-17T04:12:23.434Z,3.78
2022-08-17T04:14:54.766Z,4.05
2022-08-17T04:17:25.393Z,3.70
2022-08-17T04:19:56.126Z,3.78
2022-08-17T04:22:31.730Z,4.20
2022-08-17T04:25:04.841Z,4.38
2022-08-17T04:27:32.843Z,4.45
2022-08-17T04:30:00.830Z,4.03
2022-08-17T04:33:00.439Z,4.15
2022-08-17T04:35:22.261Z,4.40
2022-08-17T04:37:50.333Z,3.90
2022-08-17T04:40:51.808Z,4.30
2022-08-17T04:43:21.729Z,4.50
2022-08-17T04:45:56.412Z,4.75
2022-08-17T04:48:33.357Z,4.50
2022-08-17T04:51:09.917Z,4.57
2022-08-17T04:53:39.143Z,4.60
2022-08-17T04:56:07.643Z,4.40
2022-08-17T04:58:40.102Z,4.55
2022-08-17T05:01:08.597Z,4.72
2022-08-17T05:03:36.760Z,4.60
2022-08-17T05:06:06.696Z,4.85
2022-08-17T05:08:34.745Z,4.73
2022-08-17T05:11:02.834Z,4.67
2022-08-17T05:13:31.190Z,5.27
2022-08-17T05:16:03.032Z,5.50
2022-08-17T05:18:32.170Z,4.37
2022-08-17T05:21:01.317Z,4.87
2022-08-17T05:23:41.799Z,5.17
2022-08-17T05:26:25.804Z,4.47
2022-08-17T05:28:59.471Z,4.72
2022-08-17T05:31:29.496Z,4.40
2022-08-17T05:33:57.755Z,4.27
2022-08-17T05:36:42.445Z,4.40
2022-08-17T05:39:16.624Z,4.27
2022-08-17T05:41:46.410Z,4.27
2022-08-17T05:44:14.420Z,4.30
2022-08-17T05:46:46.656Z,4.13
2022-08-17T05:49:18.778Z,4.37
2022-08-17T05:52:14.096Z,4.47
2022-08-17T05:55:04.251Z,4.47
2022-08-17T05:57:43.527Z,4.30
2022-08-17T06:00:30.246Z,4.60
2022-08-17T06:03:26.540Z,4.40
2022-08-17T06:06:05.249Z,4.65
2022-08-17T06:08:39.728Z,4.07
2022-08-17T06:11:19.854Z,3.45
2022-08-17T06:14:17.221Z,2.88
2022-08-17T06:16:50.543Z,3.47
2022-08-17T06:19:23.886Z,2.63
2022-08-17T06:21:55.260Z,2.60
2022-08-17T06:24:29.935Z,2.45
2022-08-17T06:27:09.040Z,2.30
2022-08-17T06:29:47.003Z,2.30
2022-08-17T06:32:15.339Z,3.28
2022-08-17T06:34:44.781Z,2.28
2022-08-17T06:37:31.159Z,2.33
2022-08-17T06:40:07.437Z,2.55
2022-08-17T06:42:59.946Z,2.30
2022-08-17T06:45:39.049Z,2.28
2022-08-17T06:48:14.171Z,1.75
2022-08-17T06:50:49.094Z,1.70
2022-08-17T06:53:25.796Z,1.85
2022-08-17T06:55:59.933Z,2.03
2022-08-17T06:58:33.281Z,2.80
2022-08-17T07:01:07.060Z,2.65
2022-08-17T07:03:40.806Z,3.10
2022-08-17T07:06:14.157Z,2.35
2022-08-17T07:08:59.054Z,2.50
2022-08-17T07:11:31.751Z,2.05
2022-08-17T07:14:15.180Z,1.80
2022-08-17T07:16:48.524Z,1.90
2022-08-17T07:19:18.201Z,1.90
2022-08-17T07:21:55.020Z,2.05
2022-08-17T07:24:41.535Z,1.83
2022-08-17T07:27:15.013Z,2.20
2022-08-17T07:29:49.491Z,2.10
2022-08-17T07:32:21.827Z,2.20
2022-08-17T07:35:16.380Z,2.28
2022-08-17T07:37:48.654Z,2.50
2022-08-17T07:40:27.647Z,2.60
2022-08-17T07:43:04.914Z,2.50
2022-08-17T07:45:53.085Z,2.00
2022-08-17T07:48:23.215Z,2.17
2022-08-17T07:50:53.411Z,2.35
2022-08-17T07:53:25.149Z,2.50
2022-08-17T07:55:55.861Z,2.00
2022-08-17T07:58:26.554Z,2.33
2022-08-17T08:01:08.979Z,2.47
2022-08-17T08:03:43.713Z,3.05
2022-08-17T08:06:21.557Z,2.35
2022-08-17T08:08:53.125Z,2.50
2022-08-17T08:11:31.367Z,2.50
2022-08-17T08:14:21.837Z,2.55
2022-08-17T08:17:03.342Z,2.55
2022-08-17T08:19:32.485Z,2.15
2022-08-17T08:22:06.823Z,2.13
2022-08-17T08:24:53.502Z,2.15
2022-08-17T08:27:36.842Z,2.10
2022-08-17T08:30:09.925Z,1.85
2022-08-17T08:32:54.356Z,1.85
2022-08-17T08:35:32.484Z,2.20
2022-08-17T08:38:09.425Z,2.05
2022-08-17T08:40:57.450Z,1.80
2022-08-17T08:43:38.796Z,2.33
2022-08-17T08:46:19.800Z,1.63
2022-08-17T08:50:01.247Z,1.52
2022-08-17T08:52:49.537Z,1.95
2022-08-17T08:55:27.003Z,1.48
2022-08-17T08:58:01.310Z,1.60
2022-08-17T09:00:35.827Z,1.50
2022-08-17T09:03:28.078Z,1.73
2022-08-17T09:06:37.915Z,1.52
2022-08-17T09:09:18.965Z,1.40
2022-08-17T09:12:02.931Z,1.63
2022-08-17T09:14:44.945Z,1.40
2022-08-17T09:17:19.241Z,1.60
2022-08-17T09:19:54.043Z,1.40
2022-08-17T09:22:37.298Z,1.40
2022-08-17T09:25:10.517Z,1.88
2022-08-17T09:27:52.513Z,1.50
2022-08-17T09:30:21.026Z,1.42
2022-08-17T09:32:56.918Z,1.42
2022-08-17T09:35:32.963Z,1.60
2022-08-17T09:38:20.746Z,1.42
2022-08-17T09:40:53.929Z,1.88
2022-08-17T09:43:33.745Z,1.63
2022-08-17T09:46:05.444Z,1.80
2022-08-17T09:48:40.132Z,1.90
2022-08-17T09:51:14.977Z,2.10
2022-08-17T09:53:44.824Z,1.67
2022-08-17T09:56:29.960Z,1.85
2022-08-17T09:59:20.965Z,2.20
2022-08-17T10:02:01.293Z,2.00
2022-08-17T10:04:44.238Z,1.70
2022-08-17T10:07:18.958Z,2.05
2022-08-17T10:10:01.083Z,1.52
2022-08-17T10:12:38.549Z,1.73
2022-08-17T10:15:23.533Z,1.33
2022-08-17T10:18:08.846Z,1.70
2022-08-17T10:20:46.019Z,1.60
2022-08-17T10:23:35.520Z,1.90
2022-08-17T10:26:15.741Z,1.45
2022-08-17T10:28:50.790Z,1.38
2022-08-17T10:31:34.804Z,2.20
2022-08-17T10:34:36.211Z,1.40
2022-08-17T10:37:29.393Z,1.38
2022-08-17T10:40:08.695Z,1.48
2022-08-17T10:42:46.870Z,1.40
2022-08-17T10:45:20.751Z,1.23
2022-08-17T10:48:05.130Z,1.00
2022-08-17T10:51:00.227Z,1.88
2022-08-17T10:53:54.198Z,1.13
2022-08-17T10:56:25.984Z,1.20
2022-08-17T10:58:57.646Z,1.30
2022-08-17T11:02:01.174Z,2.00
2022-08-17T11:04:47.916Z,2.13
2022-08-17T11:07:27.986Z,2.58
2022-08-17T11:10:18.248Z,1.63
2022-08-17T11:12:54.494Z,1.20
2022-08-17T11:15:41.435Z,2.63
2022-08-17T11:18:32.582Z,1.58
2022-08-17T11:21:30.221Z,1.25
2022-08-17T11:24:14.664Z,1.38
2022-08-17T11:26:47.681Z,1.20
2022-08-17T11:29:24.809Z,1.02
2022-08-17T11:32:06.225Z,1.35
2022-08-17T11:34:37.251Z,1.30
2022-08-17T11:37:34.053Z,1.50
2022-08-17T11:40:16.769Z,1.40
2022-08-17T11:42:58.845Z,1.60
2022-08-17T11:45:48.236Z,1.67
2022-08-17T11:48:44.637Z,1.70
2022-08-17T11:51:34.583Z,1.88
2022-08-17T11:54:32.939Z,1.80
2022-08-17T11:56:56.773Z,1.60
2022-08-17T11:59:59.065Z,1.40
2022-08-17T12:02:47.481Z,1.30
2022-08-17T12:05:41.984Z,1.40
2022-08-17T12:08:17.810Z,1.42
2022-08-17T12:10:59.214Z,1.30
2022-08-17T12:13:39.433Z,1.50
2022-08-17T12:16:10.055Z,1.30
2022-08-17T12:18:42.206Z,1.20
2022-08-17T12:21:32.564Z,1.20
2022-08-17T12:24:07.571Z,1.30
2022-08-17T12:26:37.752Z,1.20
2022-08-17T12:29:18.083Z,1.30
2022-08-17T12:32:02.160Z,1.25
2022-08-17T12:34:37.679Z,1.25
2022-08-17T12:37:15.224Z,1.20
2022-08-17T12:39:52.687Z,1.40
2022-08-17T12:42:29.332Z,1.40
2022-08-17T12:44:57.352Z,1.40
2022-08-17T12:47:25.877Z,1.35
2022-08-17T12:50:08.403Z,1.23
2022-08-17T12:53:01.927Z,1.13
2022-08-17T12:55:33.832Z,1.33
2022-08-17T12:58:02.802Z,1.00
2022-08-17T13:00:33.560Z,1.08
2022-08-17T13:03:03.534Z,0.93
2022-08-17T13:05:35.784Z,1.17
2022-08-17T13:08:15.302Z,1.20
2022-08-17T13:10:43.947Z,0.93
2022-08-17T13:13:22.145Z,1.20
2022-08-17T13:15:54.681Z,0.98
2022-08-17T13:18:40.070Z,1.00
2022-08-17T13:21:18.200Z,0.80
2022-08-17T13:23:57.623Z,1.10
2022-08-17T13:26:30.785Z,0.80
2022-08-17T13:28:59.695Z,1.13
2022-08-17T13:31:51.892Z,1.10
2022-08-17T13:34:34.424Z,0.70
2022-08-17T13:37:36.284Z,0.80
2022-08-17T13:40:30.597Z,1.20
2022-08-17T13:42:59.333Z,0.93
2022-08-17T13:45:53.278Z,0.98
2022-08-17T13:48:25.835Z,0.63
2022-08-17T13:51:29.129Z,0.85
2022-08-17T13:54:07.454Z,0.70
2022-08-17T13:56:47.829Z,1.00
2022-08-17T13:59:36.390Z,0.85
2022-08-17T14:02:15.512Z,1.33
2022-08-17T14:04:45.604Z,1.00
2022-08-17T14:07:39.261Z,1.15
2022-08-17T14:10:13.196Z,0.80
2022-08-17T14:12:44.707Z,0.88
2022-08-17T14:15:15.690Z,0.95
2022-08-17T14:17:43.680Z,0.90
2022-08-17T14:20:13.812Z,1.00
2022-08-17T14:22:45.647Z,0.90
2022-08-17T14:25:15.874Z,0.90
2022-08-17T14:27:52.668Z,1.30
2022-08-17T14:30:24.699Z,1.00
2022-08-17T14:32:53.547Z,0.90
2022-08-17T14:35:24.075Z,0.82
2022-08-17T14:37:52.643Z,0.88
2022-08-17T14:40:25.092Z,1.30
2022-08-17T14:42:56.693Z,1.17
2022-08-17T14:45:29.628Z,1.10
2022-08-17T14:48:00.681Z,1.15
2022-08-17T14:50:28.642Z,0.98
2022-08-17T14:52:58.055Z,1.35
2022-08-17T14:55:27.215Z,0.98
2022-08-17T14:57:56.554Z,1.23
2022-08-17T15:00:25.450Z,1.33
2022-08-17T15:02:56.121Z,1.48
2022-08-17T15:05:26.693Z,1.30
2022-08-17T15:07:55.849Z,1.30
2022-08-17T15:10:25.870Z,1.05
2022-08-17T15:12:54.497Z,1.33
2022-08-17T15:15:23.978Z,2.00
2022-08-17T15:17:52.424Z,1.00
2022-08-17T15:20:22.857Z,0.90
2022-08-17T15:22:55.093Z,1.10
2022-08-17T15:25:24.809Z,0.98
2022-08-17T15:27:53.757Z,0.90
2022-08-17T15:30:23.723Z,1.08
2022-08-17T15:32:54.922Z,1.30
2022-08-17T15:35:27.965Z,0.90
2022-08-17T15:37:58.540Z,1.00
2022-08-17T15:40:26.755Z,0.88
2022-08-17T15:42:54.948Z,0.98
2022-08-17T15:45:27.001Z,0.95
2022-08-17T15:47:55.328Z,0.88
2022-08-17T15:50:23.486Z,0.90
2022-08-17T15:52:57.437Z,0.90
2022-08-17T15:55:26.437Z,0.90
2022-08-17T15:57:54.422Z,0.98
2022-08-17T16:00:26.048Z,0.90
2022-08-17T16:03:14.923Z,1.17
2022-08-17T16:05:42.578Z,1.17
2022-08-17T16:08:11.120Z,1.15
2022-08-17T16:10:39.268Z,1.38
2022-08-17T16:13:17.642Z,1.40
2022-08-17T16:15:56.213Z,1.38
2022-08-17T16:18:30.890Z,1.05
2022-08-17T16:21:19.439Z,1.33
2022-08-17T16:23:47.650Z,1.20
2022-08-17T16:26:16.037Z,1.00
2022-08-17T16:28:44.094Z,1.02
2022-08-17T16:31:14.437Z,1.05
2022-08-17T16:33:43.040Z,1.20
2022-08-17T16:36:31.185Z,1.20
2022-08-17T16:39:00.750Z,1.20
2022-08-17T16:41:46.844Z,1.35
2022-08-17T16:44:16.551Z,1.05
2022-08-17T16:46:47.509Z,1.30
2022-08-17T16:49:24.492Z,1.20
2022-08-17T16:52:09.841Z,1.10
2022-08-17T16:54:39.321Z,0.80
2022-08-17T16:57:07.336Z,1.10
2022-08-17T16:59:41.969Z,1.10
2022-08-17T17:02:17.268Z,1.30
2022-08-17T17:04:52.013Z,1.30
2022-08-17T17:07:35.125Z,1.45
2022-08-17T17:10:08.959Z,1.30
2022-08-17T17:13:03.852Z,1.52
2022-08-17T17:15:40.503Z,1.42
2022-08-17T17:18:14.801Z,1.30
2022-08-17T17:20:49.325Z,1.55
2022-08-17T17:23:42.246Z,1.20
2022-08-17T17:26:27.254Z,1.27
2022-08-17T17:29:20.401Z,1.30
2022-08-17T17:31:56.400Z,1.10
2022-08-17T17:34:30.669Z,1.40
2022-08-17T17:37:04.134Z,1.38
2022-08-17T17:39:41.544Z,1.27
2022-08-17T17:42:16.645Z,1.20
2022-08-17T17:44:51.525Z,1.20
2022-08-17T17:47:19.467Z,1.20
2022-08-17T17:49:49.628Z,1.50
2022-08-17T17:52:27.212Z,1.40
2022-08-17T17:55:07.389Z,1.38
2022-08-17T17:57:51.100Z,1.45
2022-08-17T18:00:24.317Z,1.60
2022-08-17T18:03:13.617Z,1.75
2022-08-17T18:05:57.440Z,1.70
2022-08-17T18:08:44.317Z,1.40
2022-08-17T18:11:24.634Z,1.30
2022-08-17T18:14:11.839Z,1.50
2022-08-17T18:16:42.900Z,1.58
2022-08-17T18:19:14.464Z,1.85
2022-08-17T18:21:48.779Z,1.60
2022-08-17T18:24:29.078Z,1.73
2022-08-17T18:26:59.328Z,1.92
2022-08-17T18:29:38.787Z,2.28
2022-08-17T18:32:35.316Z,2.25
2022-08-17T18:35:27.988Z,2.05
2022-08-17T18:38:20.453Z,2.17
2022-08-17T18:41:00.044Z,2.00
2022-08-17T18:43:44.181Z,1.85
2022-08-17T18:46:30.227Z,2.03
2022-08-17T18:49:01.266Z,2.10
2022-08-17T18:51:41.537Z,1.77
2022-08-17T18:54:23.314Z,2.53
2022-08-17T18:56:56.947Z,2.00
2022-08-17T18:59:30.597Z,2.25
2022-08-17T19:02:09.983Z,2.25
2022-08-17T19:04:44.511Z,2.15
2022-08-17T19:07:27.111Z,2.45
2022-08-17T19:10:07.089Z,2.08
2022-08-17T19:12:43.130Z,2.05
2022-08-17T19:15:14.841Z,2.50
2022-08-17T19:17:48.949Z,2.13
2022-08-17T19:20:20.774Z,1.90
2022-08-17T19:23:01.529Z,2.03
2022-08-17T19:25:34.967Z,2.00
2022-08-17T19:28:21.581Z,1.90
2022-08-17T19:30:55.867Z,2.03
2022-08-17T19:33:24.189Z,1.88
2022-08-17T19:36:02.141Z,2.20
2022-08-17T19:38:42.537Z,1.88
2022-08-17T19:41:20.533Z,2.38
2022-08-17T19:44:32.275Z,1.90
2022-08-17T19:47:10.486Z,1.60
2022-08-17T19:49:50.372Z,1.90
2022-08-17T19:52:33.460Z,1.52
2022-08-17T19:55:07.444Z,2.00
2022-08-17T19:57:45.121Z,1.98
2022-08-17T20:00:16.206Z,2.20
2022-08-17T20:03:05.903Z,2.10
2022-08-17T20:06:08.586Z,1.92
2022-08-17T20:08:28.592Z,1.92
2022-08-17T20:11:00.603Z,2.28
2022-08-17T20:13:36.345Z,1.63
2022-08-17T20:16:21.444Z,1.85
2022-08-17T20:18:55.486Z,2.03
2022-08-17T20:21:32.043Z,1.67
2022-08-17T20:24:05.787Z,1.95
2022-08-17T20:26:55.180Z,1.80
2022-08-17T20:29:40.267Z,2.33
2022-08-17T20:32:25.492Z,1.77
2022-08-17T20:35:06.532Z,1.90
2022-08-17T20:37:36.332Z,1.95
2022-08-17T20:40:24.347Z,1.90
2022-08-17T20:42:52.764Z,1.77
2022-08-17T20:46:04.075Z,1.80
2022-08-17T20:48:39.850Z,1.58
2022-08-17T20:51:27.329Z,1.67
2022-08-17T20:54:08.598Z,1.77
2022-08-17T20:56:53.788Z,2.65
2022-08-17T20:59:57.084Z,1.65
2022-08-17T21:02:28.880Z,1.65
2022-08-17T21:05:07.306Z,2.00
2022-08-17T21:08:14.226Z,1.55
2022-08-17T21:10:45.660Z,1.63
2022-08-17T21:13:45.418Z,1.90
2022-08-17T21:16:37.246Z,1.85
2022-08-17T21:19:23.032Z,1.60
2022-08-17T21:22:04.376Z,1.60
2022-08-17T21:24:47.671Z,1.75
2022-08-17T21:27:30.093Z,1.40
2022-08-17T21:30:21.947Z,1.70
2022-08-17T21:33:18.357Z,1.88
2022-08-17T21:35:53.048Z,1.83
2022-08-17T21:38:36.484Z,1.70
2022-08-17T21:41:05.069Z,2.15
2022-08-17T21:43:36.659Z,1.55
2022-08-17T21:46:09.724Z,1.42
2022-08-17T21:48:44.347Z,1.70
2022-08-17T21:51:23.872Z,1.70
2022-08-17T21:53:54.108Z,1.90
2022-08-17T21:56:26.923Z,1.83
2022-08-17T21:58:59.649Z,1.58
2022-08-17T22:01:31.358Z,1.80
2022-08-17T22:04:04.481Z,2.20
2022-08-17T22:06:38.663Z,1.60
2022-08-17T22:09:16.408Z,1.70
2022-08-17T22:11:55.194Z,1.73
2022-08-17T22:14:26.248Z,1.73
2022-08-17T22:17:25.066Z,1.58
2022-08-17T22:19:56.428Z,1.98
2022-08-17T22:22:30.032Z,1.60
2022-08-17T22:25:01.765Z,1.60
2022-08-17T22:27:49.908Z,1.55
2022-08-17T22:30:26.390Z,1.58
2022-08-17T22:32:55.492Z,1.60
2022-08-17T22:35:32.798Z,1.80
2022-08-17T22:38:31.313Z,1.58
2022-08-17T22:41:17.053Z,1.50
2022-08-17T22:43:45.448Z,1.52
2022-08-17T22:46:14.996Z,1.80
2022-08-17T22:48:50.343Z,1.63
2022-08-17T22:51:22.390Z,1.98
2022-08-17T22:54:08.018Z,1.88
2022-08-17T22:56:54.200Z,1.80
2022-08-17T22:59:48.680Z,1.88
2022-08-17T23:02:20.954Z,2.20
2022-08-17T23:04:52.854Z,1.75
2022-08-17T23:07:21.911Z,1.85
2022-08-17T23:09:53.068Z,1.98
2022-08-17T23:12:26.459Z,1.73
2022-08-17T23:15:00.678Z,1.77
2022-08-17T23:17:33.915Z,2.00
2022-08-17T23:20:06.281Z,1.50
2022-08-17T23:22:34.593Z,1.80
2022-08-17T23:25:04.073Z,1.70
2022-08-17T23:27:32.102Z,1.80
2022-08-17T23:30:00.112Z,1.80
2022-08-17T23:32:28.605Z,1.60
2022-08-17T23:34:59.167Z,1.70
2022-08-17T23:37:28.457Z,1.55
2022-08-17T23:39:56.476Z,1.95
2022-08-17T23:42:25.795Z,1.50
2022-08-17T23:44:53.751Z,1.90
2022-08-17T23:47:21.701Z,1.88
2022-08-17T23:49:49.741Z,1.90
2022-08-17T23:52:22.741Z,2.10
2022-08-17T23:54:50.929Z,2.40
2022-08-17T23:57:33.913Z,1.70
